ESSD/BLE METAR and TAF weather

Enter ICAO airport designator
Station Type Date Time Source
ESSD METAR 2021/09/20 05:20 UTC NOAA

ESSD 200520Z AUTO 26003KT 9999 OVC046/// 06/05 Q1027


Station Type Date Time Source
ESSD Decoded METAR 2021/09/20 05:20 UTC NOAA

Borlange, Sweden (ESSD) 60-26N 015-31E 0M
Sep 20, 2021 - 01:20 AM EDT / 2021.09.20 0520 UTC
Wind: from the W (260 degrees) at 3 MPH (3 KT):0
Visibility: greater than 7 mile(s):0
Sky conditions: overcast
Temperature: 42 F (6 C)
Dew Point: 41 F (5 C)
Relative Humidity: 93%
Pressure (altimeter): 30.33 in. Hg (1027 hPa)
ob: ESSD 200520Z AUTO 26003KT 9999 OVC046/// 06/05 Q1027
cycle: 5

Station Type Date Time Source
ESSD TAF 2018/05/02 04:48 UTC NOAA

TAF TAF ESSD 020320Z 0204/0412 27008KT 9999 BKN019 PROB40 0204/0209 BKN006

Example: see airport list